createdAt,value
2017-10-31T00:02:24.603Z,19.20
2017-10-31T00:04:52.996Z,19.07
2017-10-31T00:07:21.393Z,14.50
2017-10-31T00:09:51.010Z,14.83
2017-10-31T00:12:20.166Z,14.03
2017-10-31T00:14:48.582Z,21.13
2017-10-31T00:17:17.983Z,15.13
2017-10-31T00:19:47.192Z,26.23
2017-10-31T00:22:16.371Z,16.47
2017-10-31T00:24:44.946Z,12.40
2017-10-31T00:27:13.337Z,21.57
2017-10-31T00:29:41.775Z,21.40
2017-10-31T00:32:10.227Z,15.87
2017-10-31T00:34:38.659Z,16.13
2017-10-31T00:37:07.061Z,16.90
2017-10-31T00:39:36.568Z,19.20
2017-10-31T00:42:05.716Z,22.80
2017-10-31T00:44:34.114Z,25.17
2017-10-31T00:47:02.828Z,21.80
2017-10-31T00:49:31.996Z,26.33
2017-10-31T00:52:00.403Z,23.73
2017-10-31T00:54:30.043Z,28.67
2017-10-31T00:56:58.434Z,21.47
2017-10-31T00:59:26.871Z,16.93
2017-10-31T01:01:56.115Z,23.20
2017-10-31T01:04:24.538Z,16.97
2017-10-31T01:06:52.937Z,17.90
2017-10-31T01:09:22.355Z,14.60
2017-10-31T01:11:51.094Z,18.17
2017-10-31T01:14:19.536Z,25.27
2017-10-31T01:16:48.004Z,31.43
2017-10-31T01:19:16.413Z,31.07
2017-10-31T01:21:44.801Z,25.93
2017-10-31T01:24:13.420Z,26.30
2017-10-31T01:26:41.840Z,20.93
2017-10-31T01:29:10.283Z,18.13
2017-10-31T01:31:39.739Z,26.07
2017-10-31T01:34:08.156Z,22.13
2017-10-31T01:36:36.595Z,29.10
2017-10-31T01:39:05.098Z,19.53
2017-10-31T01:41:33.489Z,17.60
2017-10-31T01:44:01.898Z,19.37
2017-10-31T01:46:31.171Z,29.30
2017-10-31T01:48:59.602Z,24.60
2017-10-31T01:51:28.029Z,22.13
2017-10-31T01:53:56.868Z,22.97
2017-10-31T01:56:25.644Z,19.03
2017-10-31T01:58:54.052Z,24.60
2017-10-31T02:01:22.642Z,30.23
2017-10-31T02:03:51.164Z,36.17
2017-10-31T02:06:19.568Z,18.10
2017-10-31T02:08:48.070Z,19.90
2017-10-31T02:11:16.543Z,16.77
2017-10-31T02:13:44.998Z,19.20
2017-10-31T02:16:14.237Z,18.90
2017-10-31T02:18:42.649Z,28.00
2017-10-31T02:21:11.098Z,10.87
2017-10-31T02:23:39.893Z,38.43
2017-10-31T02:26:08.390Z,16.90
2017-10-31T02:28:36.856Z,18.47
2017-10-31T02:31:05.363Z,14.97
2017-10-31T02:33:33.816Z,33.83
2017-10-31T02:36:02.278Z,16.43
2017-10-31T02:38:42.895Z,17.40
2017-10-31T02:41:11.323Z,36.40
2017-10-31T02:43:39.781Z,30.57
2017-10-31T02:46:09.514Z,22.17
2017-10-31T02:48:37.993Z,18.13
2017-10-31T02:51:06.434Z,27.13
2017-10-31T02:53:34.988Z,16.97
2017-10-31T02:56:03.439Z,19.30
2017-10-31T02:58:32.381Z,22.00
2017-10-31T03:01:01.019Z,27.17
2017-10-31T03:03:29.499Z,30.87
2017-10-31T03:05:57.976Z,26.27
2017-10-31T03:08:26.469Z,20.73
2017-10-31T03:10:54.944Z,29.83
2017-10-31T03:13:23.452Z,24.00
2017-10-31T03:15:51.949Z,25.93
2017-10-31T03:18:20.394Z,28.03
2017-10-31T03:20:48.866Z,35.17
2017-10-31T03:23:17.520Z,22.83
2017-10-31T03:25:46.815Z,18.83
2017-10-31T03:28:16.054Z,23.63
2017-10-31T03:30:44.793Z,25.50
2017-10-31T03:33:14.036Z,21.60
2017-10-31T03:35:42.524Z,23.00
2017-10-31T03:38:11.108Z,15.73
2017-10-31T03:40:39.560Z,21.30
2017-10-31T03:43:08.020Z,24.27
2017-10-31T03:45:37.287Z,23.10
2017-10-31T03:48:05.735Z,25.70
2017-10-31T03:50:34.606Z,32.30
2017-10-31T03:53:04.091Z,23.07
2017-10-31T03:55:33.306Z,27.27
2017-10-31T03:58:02.554Z,35.20
2017-10-31T04:00:31.255Z,31.83
2017-10-31T04:02:59.730Z,17.30
2017-10-31T04:05:28.201Z,21.80
2017-10-31T04:07:56.719Z,21.30
2017-10-31T04:10:25.212Z,17.50
2017-10-31T04:12:54.445Z,24.37
2017-10-31T04:15:23.251Z,32.60
2017-10-31T04:17:51.675Z,27.50
2017-10-31T04:20:21.625Z,29.00
2017-10-31T04:22:50.170Z,29.40
2017-10-31T04:25:19.379Z,24.83
2017-10-31T04:27:48.612Z,35.87
2017-10-31T04:30:17.116Z,23.63
2017-10-31T04:32:45.575Z,37.57
2017-10-31T04:35:13.960Z,19.33
2017-10-31T04:37:42.513Z,18.50
2017-10-31T04:40:11.163Z,27.37
2017-10-31T04:42:40.436Z,20.70
2017-10-31T04:45:08.899Z,30.97
2017-10-31T04:47:37.280Z,25.27
2017-10-31T04:50:05.716Z,22.77
2017-10-31T04:52:35.079Z,30.80
2017-10-31T04:55:03.506Z,28.17
2017-10-31T04:57:32.017Z,31.67
2017-10-31T05:00:00.466Z,30.10
2017-10-31T05:02:29.444Z,29.23
2017-10-31T05:04:58.687Z,28.20
2017-10-31T05:07:27.435Z,35.83
2017-10-31T05:09:56.631Z,23.20
2017-10-31T05:12:25.054Z,29.03
2017-10-31T05:14:53.515Z,29.93
2017-10-31T05:17:21.943Z,35.77
2017-10-31T05:19:50.358Z,19.90
2017-10-31T05:22:19.622Z,32.47
2017-10-31T05:24:48.013Z,29.90
2017-10-31T05:27:16.413Z,39.63
2017-10-31T05:29:45.960Z,26.40
2017-10-31T05:32:14.381Z,30.10
2017-10-31T05:34:42.778Z,32.43
2017-10-31T05:37:11.998Z,28.37
2017-10-31T05:39:40.398Z,27.87
2017-10-31T05:42:08.831Z,34.20
2017-10-31T05:44:38.025Z,33.67
2017-10-31T05:47:06.431Z,33.83
2017-10-31T05:49:34.847Z,26.63
2017-10-31T05:52:03.308Z,33.97
2017-10-31T05:54:32.845Z,39.97
2017-10-31T05:57:01.277Z,20.03
2017-10-31T05:59:29.744Z,12.90
2017-10-31T06:01:58.921Z,23.70
2017-10-31T06:04:27.585Z,24.40
2017-10-31T06:06:56.296Z,24.87
2017-10-31T06:09:24.717Z,40.43
2017-10-31T06:11:53.128Z,26.83
2017-10-31T06:14:21.747Z,30.53
2017-10-31T06:16:50.928Z,26.50
2017-10-31T06:19:19.387Z,27.27
2017-10-31T06:21:53.413Z,35.67
2017-10-31T06:24:27.467Z,24.73
2017-10-31T06:27:02.692Z,25.27
2017-10-31T06:29:36.889Z,24.70
2017-10-31T06:32:09.173Z,30.47
2017-10-31T06:34:38.346Z,32.63
2017-10-31T06:37:06.763Z,36.67
2017-10-31T06:39:35.536Z,27.60
2017-10-31T06:42:04.732Z,37.27
2017-10-31T06:44:33.888Z,35.33
2017-10-31T06:47:02.368Z,30.43
2017-10-31T06:49:30.764Z,23.90
2017-10-31T06:51:59.185Z,29.80
2017-10-31T06:54:28.680Z,23.13
2017-10-31T06:56:57.860Z,31.50
2017-10-31T06:59:26.241Z,34.37
2017-10-31T07:01:54.835Z,31.97
2017-10-31T07:04:24.339Z,30.40
2017-10-31T07:06:53.621Z,38.93
2017-10-31T07:09:22.080Z,27.03
2017-10-31T07:11:50.492Z,31.43
2017-10-31T07:14:19.674Z,22.77
2017-10-31T07:16:48.175Z,36.33
2017-10-31T07:19:17.352Z,25.73
2017-10-31T07:21:45.753Z,33.23
2017-10-31T07:24:15.125Z,31.57
2017-10-31T07:26:43.547Z,40.43
2017-10-31T07:29:12.904Z,29.37
2017-10-31T07:31:41.505Z,33.20
2017-10-31T07:34:09.915Z,22.40
2017-10-31T07:36:38.329Z,27.43
2017-10-31T07:39:06.778Z,24.57
2017-10-31T07:41:35.241Z,33.17
2017-10-31T07:44:04.417Z,19.30
2017-10-31T07:46:33.242Z,16.80
2017-10-31T07:49:01.650Z,23.80
2017-10-31T07:51:30.097Z,26.63
2017-10-31T07:53:59.519Z,31.80
2017-10-31T07:56:28.333Z,30.33
2017-10-31T07:58:56.717Z,23.73
2017-10-31T08:01:25.273Z,36.63
2017-10-31T08:03:53.675Z,25.17
2017-10-31T08:06:22.104Z,28.10
2017-10-31T08:08:51.437Z,26.20
2017-10-31T08:11:19.829Z,34.40
2017-10-31T08:13:48.234Z,29.33
2017-10-31T08:16:18.372Z,29.90
2017-10-31T08:18:47.630Z,27.37
2017-10-31T08:21:16.021Z,25.07
2017-10-31T08:23:44.540Z,26.97
2017-10-31T08:26:13.718Z,33.73
2017-10-31T08:28:42.146Z,33.70
2017-10-31T08:31:11.459Z,31.50
2017-10-31T08:33:39.899Z,33.53
2017-10-31T08:36:08.357Z,25.17
2017-10-31T08:38:36.925Z,28.80
2017-10-31T08:41:05.439Z,28.33
2017-10-31T08:43:34.681Z,27.37
2017-10-31T08:46:03.362Z,29.87
2017-10-31T08:48:31.846Z,34.13
2017-10-31T08:51:00.293Z,31.10
2017-10-31T08:53:29.627Z,35.10
2017-10-31T08:55:58.058Z,34.97
2017-10-31T08:58:26.477Z,30.43
2017-10-31T09:00:55.052Z,35.70
2017-10-31T09:03:23.445Z,40.10
2017-10-31T09:05:51.867Z,37.20
2017-10-31T09:08:20.569Z,27.00
2017-10-31T09:10:49.822Z,20.33
2017-10-31T09:13:18.279Z,35.83
2017-10-31T09:15:46.720Z,35.97
2017-10-31T09:18:15.908Z,35.80
2017-10-31T09:20:44.535Z,22.80
2017-10-31T09:23:13.286Z,29.53
2017-10-31T09:25:41.682Z,34.57
2017-10-31T09:28:10.863Z,35.23
2017-10-31T09:30:39.294Z,35.80
2017-10-31T09:33:08.127Z,26.87
2017-10-31T09:35:36.567Z,30.90
2017-10-31T09:38:05.054Z,35.57
2017-10-31T09:40:33.537Z,39.33
2017-10-31T09:43:02.254Z,28.60
2017-10-31T09:45:31.669Z,30.43
2017-10-31T09:48:00.908Z,33.33
2017-10-31T09:50:29.776Z,26.90
2017-10-31T09:52:58.954Z,29.83
2017-10-31T09:55:27.707Z,36.40
2017-10-31T09:57:57.349Z,27.87
2017-10-31T10:00:27.459Z,25.10
2017-10-31T10:02:55.920Z,24.70
2017-10-31T10:05:24.350Z,34.40
2017-10-31T10:07:52.791Z,27.97
2017-10-31T10:10:21.251Z,35.10
2017-10-31T10:12:50.492Z,23.00
2017-10-31T10:15:18.996Z,34.10
2017-10-31T10:17:48.217Z,31.23
2017-10-31T10:20:16.756Z,20.13
2017-10-31T10:22:45.397Z,27.30
2017-10-31T10:25:13.833Z,21.60
2017-10-31T10:27:43.001Z,21.40
2017-10-31T10:30:11.842Z,31.53
2017-10-31T10:32:40.323Z,32.80
2017-10-31T10:35:08.802Z,23.60
2017-10-31T10:37:37.269Z,27.20
2017-10-31T10:40:06.523Z,41.73
2017-10-31T10:42:34.985Z,18.13
2017-10-31T10:45:03.631Z,24.60
2017-10-31T10:47:32.082Z,36.77
2017-10-31T10:50:00.602Z,29.73
2017-10-31T10:52:29.699Z,19.07
2017-10-31T10:54:58.121Z,26.33
2017-10-31T10:57:26.582Z,26.20
2017-10-31T10:59:55.271Z,27.60
2017-10-31T11:02:23.774Z,27.17
2017-10-31T11:04:52.207Z,15.53
2017-10-31T11:07:20.890Z,25.83
2017-10-31T11:09:49.359Z,18.60
2017-10-31T11:12:18.594Z,26.27
2017-10-31T11:14:47.413Z,21.17
2017-10-31T11:17:15.924Z,26.77
2017-10-31T11:19:45.114Z,14.80
2017-10-31T11:22:14.673Z,15.80
2017-10-31T11:24:43.500Z,15.00
2017-10-31T11:27:12.707Z,16.63
2017-10-31T11:29:41.457Z,11.80
2017-10-31T11:32:10.059Z,19.80
2017-10-31T11:34:38.511Z,17.17
2017-10-31T11:37:07.076Z,23.97
2017-10-31T11:39:35.473Z,10.80
2017-10-31T11:42:03.887Z,24.03
2017-10-31T11:44:32.424Z,22.50
2017-10-31T11:47:00.836Z,22.53
2017-10-31T11:49:29.449Z,21.63
2017-10-31T11:51:58.089Z,21.97
2017-10-31T11:54:26.486Z,23.13
2017-10-31T11:56:54.895Z,26.77
2017-10-31T11:59:23.349Z,17.90
2017-10-31T12:01:51.786Z,20.20
2017-10-31T12:04:20.344Z,21.27
2017-10-31T12:06:49.896Z,19.83
2017-10-31T12:09:18.393Z,15.87
2017-10-31T12:11:46.836Z,20.60
2017-10-31T12:14:15.599Z,19.07
2017-10-31T12:16:45.020Z,19.60
2017-10-31T12:19:13.438Z,16.40
2017-10-31T12:21:41.914Z,14.20
2017-10-31T12:24:10.360Z,15.40
2017-10-31T12:26:38.815Z,12.50
2017-10-31T12:29:07.538Z,16.50
2017-10-31T12:31:35.965Z,17.67
2017-10-31T12:34:04.409Z,18.07
2017-10-31T12:36:33.050Z,19.50
2017-10-31T12:39:02.804Z,19.47
2017-10-31T12:41:31.275Z,24.07
2017-10-31T12:43:59.831Z,17.40
2017-10-31T12:46:29.022Z,20.00
2017-10-31T12:48:58.764Z,20.97
2017-10-31T12:51:27.285Z,27.07
2017-10-31T12:53:55.774Z,19.77
2017-10-31T12:56:24.167Z,22.30
2017-10-31T12:58:53.793Z,20.40
2017-10-31T13:01:22.199Z,16.60
2017-10-31T13:03:51.015Z,12.60
2017-10-31T13:06:19.607Z,21.93
2017-10-31T13:08:48.178Z,16.57
2017-10-31T13:11:16.635Z,22.10
2017-10-31T13:13:45.149Z,6.73
2017-10-31T13:16:14.379Z,13.93
2017-10-31T13:18:43.692Z,8.30
2017-10-31T13:21:12.181Z,7.97
2017-10-31T13:23:40.655Z,17.37
2017-10-31T13:26:09.631Z,6.83
2017-10-31T13:28:39.820Z,8.27
2017-10-31T13:31:09.417Z,6.60
2017-10-31T13:33:38.346Z,9.23
2017-10-31T13:36:08.100Z,6.53
2017-10-31T13:38:37.335Z,1.87
2017-10-31T13:41:07.245Z,5.57
2017-10-31T13:43:36.892Z,9.20
2017-10-31T13:46:06.265Z,6.83
2017-10-31T13:48:35.232Z,4.17
2017-10-31T13:51:05.644Z,5.20
2017-10-31T13:53:34.785Z,3.43
2017-10-31T13:56:04.740Z,5.13
2017-10-31T13:58:34.681Z,1.70
2017-10-31T14:01:04.173Z,3.03
2017-10-31T14:03:34.275Z,3.23
2017-10-31T14:06:04.989Z,7.17
2017-10-31T14:08:34.015Z,5.67
2017-10-31T14:11:03.188Z,3.47
2017-10-31T14:13:32.071Z,3.67
2017-10-31T14:16:00.970Z,4.67
2017-10-31T14:18:29.666Z,6.23
2017-10-31T14:20:59.030Z,4.70
2017-10-31T14:23:27.606Z,4.80
2017-10-31T14:25:58.159Z,4.70
2017-10-31T14:28:27.074Z,4.07
2017-10-31T14:30:55.804Z,6.90
2017-10-31T14:33:26.280Z,4.03
2017-10-31T14:35:55.195Z,11.53
2017-10-31T14:38:23.864Z,4.53
2017-10-31T14:40:52.642Z,5.40
2017-10-31T14:43:26.237Z,7.30
2017-10-31T14:45:55.008Z,6.60
2017-10-31T14:48:23.703Z,7.90
2017-10-31T14:50:52.760Z,10.20
2017-10-31T14:53:22.319Z,8.33
2017-10-31T14:55:51.007Z,6.43
2017-10-31T14:58:19.897Z,4.53
2017-10-31T15:00:48.560Z,9.00
2017-10-31T15:03:17.988Z,5.43
2017-10-31T15:05:47.131Z,7.83
2017-10-31T15:08:16.705Z,5.20
2017-10-31T15:10:46.533Z,5.27
2017-10-31T15:13:15.409Z,11.13
2017-10-31T15:15:44.103Z,13.70
2017-10-31T15:18:12.816Z,5.73
2017-10-31T15:20:42.875Z,7.40
2017-10-31T15:23:13.335Z,9.77
2017-10-31T15:25:42.125Z,5.53
2017-10-31T15:28:10.853Z,13.60
2017-10-31T15:30:40.516Z,5.40
2017-10-31T15:33:10.326Z,8.53
2017-10-31T15:35:38.988Z,9.70
2017-10-31T15:38:07.764Z,8.07
2017-10-31T15:40:37.204Z,7.37
2017-10-31T15:43:06.134Z,8.23
2017-10-31T15:45:34.871Z,7.37
2017-10-31T15:48:04.360Z,8.77
2017-10-31T15:50:33.752Z,14.73
2017-10-31T15:53:03.364Z,11.47
2017-10-31T15:55:32.099Z,12.20
2017-10-31T15:58:02.052Z,12.90
2017-10-31T16:00:30.690Z,4.53
2017-10-31T16:02:59.286Z,4.20
2017-10-31T16:05:28.417Z,10.00
2017-10-31T16:07:57.977Z,7.53
2017-10-31T16:10:26.571Z,6.50
2017-10-31T16:12:55.490Z,6.87
2017-10-31T16:15:24.860Z,5.77
2017-10-31T16:17:53.541Z,7.03
2017-10-31T16:20:22.348Z,4.50
2017-10-31T16:22:50.992Z,5.47
2017-10-31T16:25:20.043Z,9.07
2017-10-31T16:27:48.698Z,15.00
2017-10-31T16:30:17.354Z,3.93
2017-10-31T16:32:46.798Z,2.63
2017-10-31T16:35:15.595Z,6.70
2017-10-31T16:37:44.154Z,5.07
2017-10-31T16:40:12.744Z,5.20
2017-10-31T16:42:41.736Z,4.30
2017-10-31T16:45:10.481Z,5.10
2017-10-31T16:47:39.170Z,4.70
2017-10-31T16:50:08.196Z,9.20
2017-10-31T16:52:36.767Z,11.07
2017-10-31T16:55:05.371Z,10.47
2017-10-31T16:57:34.495Z,8.10
2017-10-31T17:00:03.952Z,11.67
2017-10-31T17:02:32.507Z,6.73
2017-10-31T17:05:01.473Z,10.20
2017-10-31T17:07:30.125Z,10.37
2017-10-31T17:09:58.814Z,10.33
2017-10-31T17:12:27.618Z,7.47
2017-10-31T17:14:56.160Z,9.67
2017-10-31T17:17:24.761Z,4.53
2017-10-31T17:19:53.709Z,5.90
2017-10-31T17:22:23.252Z,6.70
2017-10-31T17:24:51.831Z,6.60
2017-10-31T17:27:21.036Z,6.10
2017-10-31T17:29:49.628Z,9.90
2017-10-31T17:32:18.222Z,8.57
2017-10-31T17:34:46.967Z,11.03
2017-10-31T17:37:16.473Z,8.73
2017-10-31T17:39:45.058Z,6.43
2017-10-31T17:42:13.776Z,11.70
2017-10-31T17:44:42.554Z,13.13
2017-10-31T17:47:11.258Z,7.50
2017-10-31T17:49:40.032Z,13.70
2017-10-31T17:52:08.633Z,16.70
2017-10-31T17:54:37.255Z,12.30
2017-10-31T17:57:06.149Z,6.03
2017-10-31T17:59:35.604Z,11.23
2017-10-31T18:02:04.228Z,11.23
2017-10-31T18:04:33.684Z,8.83
2017-10-31T18:07:02.260Z,20.80
2017-10-31T18:09:30.835Z,12.93
2017-10-31T18:11:59.845Z,8.70
2017-10-31T18:14:28.417Z,12.97
2017-10-31T18:19:33.381Z,15.57
2017-10-31T18:22:02.526Z,11.63
2017-10-31T18:24:31.211Z,17.77
2017-10-31T18:27:00.700Z,10.30
2017-10-31T18:29:30.723Z,9.20
2017-10-31T18:31:59.318Z,15.60
2017-10-31T18:34:29.251Z,13.50
2017-10-31T18:36:57.833Z,27.70
2017-10-31T18:39:26.434Z,20.90
2017-10-31T18:41:55.081Z,17.73
2017-10-31T18:44:23.714Z,17.50
2017-10-31T18:46:52.416Z,14.87
2017-10-31T18:49:21.060Z,14.17
2017-10-31T18:51:49.677Z,15.23
2017-10-31T18:54:18.265Z,15.50
2017-10-31T18:56:47.141Z,13.67
2017-10-31T18:59:15.747Z,11.70
2017-10-31T19:01:44.342Z,10.90
2017-10-31T19:04:12.980Z,12.27
2017-10-31T19:06:41.580Z,13.57
2017-10-31T19:09:10.240Z,16.33
2017-10-31T19:11:39.049Z,14.30
2017-10-31T19:14:07.662Z,16.70
2017-10-31T19:16:36.369Z,13.63
2017-10-31T19:19:06.176Z,18.90
2017-10-31T19:21:34.752Z,12.57
2017-10-31T19:24:03.364Z,13.17
2017-10-31T19:26:32.892Z,17.73
2017-10-31T19:29:01.555Z,13.77
2017-10-31T19:31:30.599Z,15.97
2017-10-31T19:33:59.273Z,18.03
2017-10-31T19:36:28.003Z,17.43
2017-10-31T19:38:56.679Z,16.60
2017-10-31T19:41:25.341Z,15.43
2017-10-31T19:43:55.692Z,16.43
2017-10-31T19:46:25.143Z,19.33
2017-10-31T19:48:54.727Z,13.07
2017-10-31T19:51:24.028Z,15.27
2017-10-31T19:53:53.405Z,13.33
2017-10-31T19:56:22.013Z,11.93
2017-10-31T19:58:51.553Z,17.03
2017-10-31T20:01:20.217Z,11.53
2017-10-31T20:03:49.042Z,12.40
2017-10-31T20:06:18.535Z,9.57
2017-10-31T20:08:47.174Z,10.50
2017-10-31T20:11:16.710Z,13.50
2017-10-31T20:13:45.362Z,12.00
2017-10-31T20:16:13.999Z,8.33
2017-10-31T20:18:42.675Z,15.43
2017-10-31T20:21:11.256Z,15.73
2017-10-31T20:23:39.894Z,13.33
2017-10-31T20:26:09.803Z,16.73
2017-10-31T20:28:39.150Z,15.60
2017-10-31T20:31:07.703Z,13.30
2017-10-31T20:33:37.621Z,15.87
2017-10-31T20:36:07.046Z,11.50
2017-10-31T20:38:35.748Z,12.67
2017-10-31T20:41:04.515Z,10.50
2017-10-31T20:43:33.174Z,17.20
2017-10-31T20:46:02.576Z,16.23
2017-10-31T20:48:31.220Z,12.30
2017-10-31T20:51:00.789Z,17.30
2017-10-31T20:53:29.483Z,29.90
2017-10-31T20:55:58.500Z,12.47
2017-10-31T20:58:27.845Z,12.37
2017-10-31T21:00:57.188Z,17.80
2017-10-31T21:03:25.872Z,13.40
2017-10-31T21:05:54.459Z,13.23
2017-10-31T21:08:23.089Z,17.67
2017-10-31T21:10:52.693Z,14.80
2017-10-31T21:13:21.349Z,10.43
2017-10-31T21:15:50.106Z,11.03
2017-10-31T21:18:18.819Z,14.20
2017-10-31T21:20:48.328Z,6.97
2017-10-31T21:23:16.903Z,12.13
2017-10-31T21:25:45.664Z,8.33
2017-10-31T21:28:14.301Z,10.73
2017-10-31T21:30:43.771Z,11.03
2017-10-31T21:33:12.429Z,9.50
2017-10-31T21:35:41.654Z,8.63
2017-10-31T21:38:10.237Z,9.80
2017-10-31T21:40:39.235Z,15.63
2017-10-31T21:43:07.831Z,13.43
2017-10-31T21:45:36.406Z,11.17
2017-10-31T21:48:05.041Z,13.80
2017-10-31T21:50:34.559Z,10.80
2017-10-31T21:53:03.255Z,18.60
2017-10-31T21:55:32.150Z,16.33
2017-10-31T21:58:00.723Z,9.97
2017-10-31T22:00:30.145Z,14.60
2017-10-31T22:02:58.814Z,7.70
2017-10-31T22:05:27.464Z,13.47
2017-10-31T22:07:56.081Z,18.93
2017-10-31T22:10:25.238Z,12.00
2017-10-31T22:15:28.845Z,11.50
2017-10-31T22:17:57.487Z,15.33
2017-10-31T22:20:26.282Z,14.00
2017-10-31T22:22:55.022Z,7.80
2017-10-31T22:25:23.569Z,14.30
2017-10-31T22:27:52.160Z,9.93
2017-10-31T22:30:20.793Z,11.00
2017-10-31T22:32:50.168Z,11.13
2017-10-31T22:35:18.711Z,5.67
2017-10-31T22:37:48.341Z,12.73
2017-10-31T22:40:16.967Z,16.77
2017-10-31T22:42:46.284Z,11.73
2017-10-31T22:45:15.685Z,9.23
2017-10-31T22:47:45.024Z,5.00
2017-10-31T22:50:13.575Z,8.90
2017-10-31T22:52:42.504Z,13.70
2017-10-31T22:55:11.061Z,9.70
2017-10-31T22:57:39.636Z,5.37
2017-10-31T23:00:08.321Z,10.20
2017-10-31T23:02:37.629Z,10.50
2017-10-31T23:05:07.295Z,9.57
2017-10-31T23:07:36.232Z,7.67
2017-10-31T23:10:04.916Z,13.03
2017-10-31T23:12:33.478Z,8.73
2017-10-31T23:15:02.832Z,13.37
2017-10-31T23:17:31.439Z,6.27
2017-10-31T23:19:59.988Z,8.13
2017-10-31T23:22:28.880Z,13.13
2017-10-31T23:24:57.488Z,10.20
2017-10-31T23:27:26.058Z,11.03
2017-10-31T23:29:55.770Z,8.57
2017-10-31T23:32:25.436Z,16.07
2017-10-31T23:34:54.022Z,11.83
2017-10-31T23:37:22.613Z,9.10
2017-10-31T23:39:51.627Z,18.13
2017-10-31T23:42:21.236Z,16.50
2017-10-31T23:44:51.558Z,12.73
2017-10-31T23:47:20.178Z,11.03
2017-10-31T23:49:48.825Z,10.30
2017-10-31T23:52:17.906Z,10.57
2017-10-31T23:54:46.706Z,10.83
2017-10-31T23:57:15.278Z,3.40
2017-10-31T23:59:44.746Z,13.80
